sensor_id;sensor_type;location;lat;lon;timestamp;P1;durP1;ratioP1;P2;durP2;ratioP2
545;SDS011;259;53.304;9.816;2023-04-19T00:00:38;3.90;;;3.60;;
545;SDS011;259;53.304;9.816;2023-04-19T00:03:07;3.70;;;3.50;;
545;SDS011;259;53.304;9.816;2023-04-19T00:05:34;4.47;;;4.07;;
545;SDS011;259;53.304;9.816;2023-04-19T00:08:02;3.77;;;3.47;;
545;SDS011;259;53.304;9.816;2023-04-19T00:10:29;4.30;;;4.00;;
545;SDS011;259;53.304;9.816;2023-04-19T00:12:55;3.53;;;3.33;;
545;SDS011;259;53.304;9.816;2023-04-19T00:15:20;4.13;;;3.73;;
545;SDS011;259;53.304;9.816;2023-04-19T00:17:46;3.77;;;3.47;;
545;SDS011;259;53.304;9.816;2023-04-19T00:20:12;4.10;;;3.80;;
545;SDS011;259;53.304;9.816;2023-04-19T00:22:38;3.93;;;3.63;;
545;SDS011;259;53.304;9.816;2023-04-19T00:25:05;4.13;;;3.50;;
545;SDS011;259;53.304;9.816;2023-04-19T00:27:31;4.07;;;3.67;;
545;SDS011;259;53.304;9.816;2023-04-19T00:29:56;3.50;;;3.30;;
545;SDS011;259;53.304;9.816;2023-04-19T00:32:22;4.57;;;4.27;;
545;SDS011;259;53.304;9.816;2023-04-19T00:34:48;4.50;;;4.20;;
545;SDS011;259;53.304;9.816;2023-04-19T00:37:14;3.47;;;3.20;;
545;SDS011;259;53.304;9.816;2023-04-19T00:39:40;3.43;;;3.23;;
545;SDS011;259;53.304;9.816;2023-04-19T00:42:05;3.93;;;3.63;;
545;SDS011;259;53.304;9.816;2023-04-19T00:44:31;3.67;;;3.37;;
545;SDS011;259;53.304;9.816;2023-04-19T00:46:57;3.30;;;3.03;;
545;SDS011;259;53.304;9.816;2023-04-19T00:49:25;3.70;;;3.40;;
545;SDS011;259;53.304;9.816;2023-04-19T00:51:51;3.63;;;3.43;;
545;SDS011;259;53.304;9.816;2023-04-19T00:54:18;4.00;;;3.70;;
545;SDS011;259;53.304;9.816;2023-04-19T00:56:44;4.80;;;4.47;;
545;SDS011;259;53.304;9.816;2023-04-19T00:59:10;3.57;;;3.37;;
545;SDS011;259;53.304;9.816;2023-04-19T01:01:37;4.10;;;3.73;;
545;SDS011;259;53.304;9.816;2023-04-19T01:04:06;4.00;;;3.70;;
545;SDS011;259;53.304;9.816;2023-04-19T01:06:33;3.77;;;3.47;;
545;SDS011;259;53.304;9.816;2023-04-19T01:09:00;3.47;;;3.27;;
545;SDS011;259;53.304;9.816;2023-04-19T01:11:26;4.27;;;3.73;;
545;SDS011;259;53.304;9.816;2023-04-19T01:13:53;3.70;;;3.50;;
545;SDS011;259;53.304;9.816;2023-04-19T01:16:20;3.57;;;3.30;;
545;SDS011;259;53.304;9.816;2023-04-19T01:18:46;3.90;;;3.60;;
545;SDS011;259;53.304;9.816;2023-04-19T01:21:12;4.07;;;3.73;;
545;SDS011;259;53.304;9.816;2023-04-19T01:23:38;3.43;;;3.20;;
545;SDS011;259;53.304;9.816;2023-04-19T01:26:04;3.60;;;3.30;;
545;SDS011;259;53.304;9.816;2023-04-19T01:28:30;3.47;;;3.00;;
545;SDS011;259;53.304;9.816;2023-04-19T01:30:56;3.57;;;3.27;;
545;SDS011;259;53.304;9.816;2023-04-19T01:33:22;3.37;;;3.13;;
545;SDS011;259;53.304;9.816;2023-04-19T01:35:48;3.90;;;3.60;;
545;SDS011;259;53.304;9.816;2023-04-19T01:38:14;3.73;;;3.43;;
545;SDS011;259;53.304;9.816;2023-04-19T01:40:41;3.90;;;3.60;;
545;SDS011;259;53.304;9.816;2023-04-19T01:43:07;3.60;;;3.30;;
545;SDS011;259;53.304;9.816;2023-04-19T01:45:34;4.00;;;3.70;;
545;SDS011;259;53.304;9.816;2023-04-19T01:48:01;3.20;;;3.00;;
545;SDS011;259;53.304;9.816;2023-04-19T01:50:28;4.10;;;3.70;;
545;SDS011;259;53.304;9.816;2023-04-19T01:52:55;3.47;;;3.17;;
545;SDS011;259;53.304;9.816;2023-04-19T01:55:21;3.33;;;3.10;;
545;SDS011;259;53.304;9.816;2023-04-19T01:57:47;3.00;;;2.80;;
545;SDS011;259;53.304;9.816;2023-04-19T02:00:13;3.70;;;3.50;;
545;SDS011;259;53.304;9.816;2023-04-19T02:02:39;3.27;;;3.07;;
545;SDS011;259;53.304;9.816;2023-04-19T02:05:06;3.57;;;3.27;;
545;SDS011;259;53.304;9.816;2023-04-19T02:07:32;3.50;;;3.30;;
545;SDS011;259;53.304;9.816;2023-04-19T02:09:58;3.40;;;3.10;;
545;SDS011;259;53.304;9.816;2023-04-19T02:12:25;3.20;;;3.00;;
545;SDS011;259;53.304;9.816;2023-04-19T02:14:57;3.73;;;3.43;;
545;SDS011;259;53.304;9.816;2023-04-19T02:17:26;3.63;;;3.33;;
545;SDS011;259;53.304;9.816;2023-04-19T02:19:52;3.23;;;2.97;;
545;SDS011;259;53.304;9.816;2023-04-19T02:22:18;3.33;;;3.03;;
545;SDS011;259;53.304;9.816;2023-04-19T02:24:44;2.97;;;2.77;;
545;SDS011;259;53.304;9.816;2023-04-19T02:27:11;3.40;;;3.10;;
545;SDS011;259;53.304;9.816;2023-04-19T02:29:37;3.20;;;3.00;;
545;SDS011;259;53.304;9.816;2023-04-19T02:32:03;2.97;;;2.77;;
545;SDS011;259;53.304;9.816;2023-04-19T02:34:31;3.13;;;2.93;;
545;SDS011;259;53.304;9.816;2023-04-19T02:36:57;2.37;;;2.27;;
545;SDS011;259;53.304;9.816;2023-04-19T02:39:23;2.77;;;2.57;;
545;SDS011;259;53.304;9.816;2023-04-19T02:41:49;3.00;;;2.80;;
545;SDS011;259;53.304;9.816;2023-04-19T02:44:15;2.60;;;2.43;;
545;SDS011;259;53.304;9.816;2023-04-19T02:46:40;3.50;;;3.27;;
545;SDS011;259;53.304;9.816;2023-04-19T02:49:10;3.40;;;3.10;;
545;SDS011;259;53.304;9.816;2023-04-19T02:51:35;3.10;;;2.80;;
545;SDS011;259;53.304;9.816;2023-04-19T02:54:01;3.00;;;2.80;;
545;SDS011;259;53.304;9.816;2023-04-19T02:56:27;2.53;;;2.40;;
545;SDS011;259;53.304;9.816;2023-04-19T02:58:52;2.73;;;2.53;;
545;SDS011;259;53.304;9.816;2023-04-19T03:01:19;3.13;;;2.93;;
545;SDS011;259;53.304;9.816;2023-04-19T03:03:44;2.67;;;2.47;;
545;SDS011;259;53.304;9.816;2023-04-19T03:06:10;2.60;;;2.40;;
545;SDS011;259;53.304;9.816;2023-04-19T03:08:36;3.10;;;2.90;;
545;SDS011;259;53.304;9.816;2023-04-19T03:11:01;3.23;;;3.03;;
545;SDS011;259;53.304;9.816;2023-04-19T03:13:27;2.60;;;2.50;;
545;SDS011;259;53.304;9.816;2023-04-19T03:15:53;3.07;;;2.53;;
545;SDS011;259;53.304;9.816;2023-04-19T03:18:19;2.60;;;2.40;;
545;SDS011;259;53.304;9.816;2023-04-19T03:20:45;3.37;;;3.13;;
545;SDS011;259;53.304;9.816;2023-04-19T03:23:11;3.50;;;3.20;;
545;SDS011;259;53.304;9.816;2023-04-19T03:25:36;3.00;;;2.80;;
545;SDS011;259;53.304;9.816;2023-04-19T03:28:02;2.80;;;2.50;;
545;SDS011;259;53.304;9.816;2023-04-19T03:30:28;3.13;;;2.93;;
545;SDS011;259;53.304;9.816;2023-04-19T03:32:54;2.57;;;2.37;;
545;SDS011;259;53.304;9.816;2023-04-19T03:35:20;2.83;;;2.63;;
545;SDS011;259;53.304;9.816;2023-04-19T03:37:46;2.47;;;2.27;;
545;SDS011;259;53.304;9.816;2023-04-19T03:40:12;2.57;;;2.37;;
545;SDS011;259;53.304;9.816;2023-04-19T03:42:38;2.63;;;2.43;;
545;SDS011;259;53.304;9.816;2023-04-19T03:45:04;2.80;;;2.60;;
545;SDS011;259;53.304;9.816;2023-04-19T03:47:30;2.63;;;2.37;;
545;SDS011;259;53.304;9.816;2023-04-19T03:49:55;2.80;;;2.60;;
545;SDS011;259;53.304;9.816;2023-04-19T03:52:21;2.37;;;2.27;;
545;SDS011;259;53.304;9.816;2023-04-19T03:54:47;2.73;;;2.50;;
545;SDS011;259;53.304;9.816;2023-04-19T03:57:13;2.77;;;2.57;;
545;SDS011;259;53.304;9.816;2023-04-19T03:59:41;2.33;;;2.23;;
545;SDS011;259;53.304;9.816;2023-04-19T04:02:07;2.37;;;2.27;;
545;SDS011;259;53.304;9.816;2023-04-19T04:04:33;2.13;;;2.03;;
545;SDS011;259;53.304;9.816;2023-04-19T04:06:58;2.57;;;2.40;;
545;SDS011;259;53.304;9.816;2023-04-19T04:09:24;2.70;;;2.50;;
545;SDS011;259;53.304;9.816;2023-04-19T04:11:50;2.33;;;2.13;;
545;SDS011;259;53.304;9.816;2023-04-19T04:14:15;2.60;;;2.40;;
545;SDS011;259;53.304;9.816;2023-04-19T04:16:41;2.47;;;2.30;;
545;SDS011;259;53.304;9.816;2023-04-19T04:19:07;2.33;;;2.17;;
545;SDS011;259;53.304;9.816;2023-04-19T04:21:32;2.40;;;2.30;;
545;SDS011;259;53.304;9.816;2023-04-19T04:23:58;2.70;;;2.50;;
545;SDS011;259;53.304;9.816;2023-04-19T04:26:25;2.23;;;2.13;;
545;SDS011;259;53.304;9.816;2023-04-19T04:28:54;2.07;;;1.97;;
545;SDS011;259;53.304;9.816;2023-04-19T04:31:21;1.93;;;1.83;;
545;SDS011;259;53.304;9.816;2023-04-19T04:33:47;2.20;;;2.10;;
545;SDS011;259;53.304;9.816;2023-04-19T04:36:13;2.13;;;2.03;;
545;SDS011;259;53.304;9.816;2023-04-19T04:38:39;2.27;;;2.13;;
545;SDS011;259;53.304;9.816;2023-04-19T04:41:05;2.07;;;1.87;;
545;SDS011;259;53.304;9.816;2023-04-19T04:43:31;2.20;;;2.10;;
545;SDS011;259;53.304;9.816;2023-04-19T04:45:57;2.20;;;2.00;;
545;SDS011;259;53.304;9.816;2023-04-19T04:48:23;2.30;;;2.10;;
545;SDS011;259;53.304;9.816;2023-04-19T04:50:49;2.50;;;2.30;;
545;SDS011;259;53.304;9.816;2023-04-19T04:53:15;2.17;;;2.03;;
545;SDS011;259;53.304;9.816;2023-04-19T04:55:41;2.10;;;2.00;;
545;SDS011;259;53.304;9.816;2023-04-19T04:58:06;2.23;;;2.13;;
545;SDS011;259;53.304;9.816;2023-04-19T05:00:32;1.90;;;1.80;;
545;SDS011;259;53.304;9.816;2023-04-19T05:02:58;1.90;;;1.80;;
545;SDS011;259;53.304;9.816;2023-04-19T05:05:24;2.40;;;2.20;;
545;SDS011;259;53.304;9.816;2023-04-19T05:07:50;2.50;;;2.30;;
545;SDS011;259;53.304;9.816;2023-04-19T05:10:15;2.27;;;2.17;;
545;SDS011;259;53.304;9.816;2023-04-19T05:12:41;2.00;;;1.90;;
545;SDS011;259;53.304;9.816;2023-04-19T05:15:07;2.00;;;1.90;;
545;SDS011;259;53.304;9.816;2023-04-19T05:17:33;1.80;;;1.70;;
545;SDS011;259;53.304;9.816;2023-04-19T05:19:58;2.10;;;2.00;;
545;SDS011;259;53.304;9.816;2023-04-19T05:22:24;2.20;;;2.00;;
545;SDS011;259;53.304;9.816;2023-04-19T05:24:51;1.90;;;1.80;;
545;SDS011;259;53.304;9.816;2023-04-19T05:27:16;2.60;;;2.40;;
545;SDS011;259;53.304;9.816;2023-04-19T05:29:42;1.83;;;1.73;;
545;SDS011;259;53.304;9.816;2023-04-19T05:32:08;1.80;;;1.70;;
545;SDS011;259;53.304;9.816;2023-04-19T05:34:34;1.80;;;1.70;;
545;SDS011;259;53.304;9.816;2023-04-19T05:37:01;2.27;;;2.07;;
545;SDS011;259;53.304;9.816;2023-04-19T05:39:27;2.10;;;2.00;;
545;SDS011;259;53.304;9.816;2023-04-19T05:41:53;2.00;;;1.90;;
545;SDS011;259;53.304;9.816;2023-04-19T05:44:19;2.37;;;2.27;;
545;SDS011;259;53.304;9.816;2023-04-19T05:46:44;2.60;;;2.50;;
545;SDS011;259;53.304;9.816;2023-04-19T05:49:10;1.83;;;1.70;;
545;SDS011;259;53.304;9.816;2023-04-19T05:51:36;2.40;;;2.20;;
545;SDS011;259;53.304;9.816;2023-04-19T05:54:01;1.70;;;1.60;;
545;SDS011;259;53.304;9.816;2023-04-19T05:56:27;1.93;;;1.83;;
545;SDS011;259;53.304;9.816;2023-04-19T05:58:53;1.60;;;1.50;;
545;SDS011;259;53.304;9.816;2023-04-19T06:01:22;1.60;;;1.50;;
545;SDS011;259;53.304;9.816;2023-04-19T06:03:48;2.03;;;1.93;;
545;SDS011;259;53.304;9.816;2023-04-19T06:06:17;1.70;;;1.60;;
545;SDS011;259;53.304;9.816;2023-04-19T06:08:47;2.33;;;2.13;;
545;SDS011;259;53.304;9.816;2023-04-19T06:11:12;1.90;;;1.80;;
545;SDS011;259;53.304;9.816;2023-04-19T06:13:38;2.17;;;1.80;;
545;SDS011;259;53.304;9.816;2023-04-19T06:16:04;1.90;;;1.80;;
545;SDS011;259;53.304;9.816;2023-04-19T06:18:30;1.70;;;1.60;;
545;SDS011;259;53.304;9.816;2023-04-19T06:20:56;1.57;;;1.47;;
545;SDS011;259;53.304;9.816;2023-04-19T06:23:21;2.33;;;2.23;;
545;SDS011;259;53.304;9.816;2023-04-19T06:25:47;1.77;;;1.67;;
545;SDS011;259;53.304;9.816;2023-04-19T06:28:13;2.13;;;1.87;;
545;SDS011;259;53.304;9.816;2023-04-19T06:30:39;2.00;;;1.80;;
545;SDS011;259;53.304;9.816;2023-04-19T06:33:05;1.80;;;1.70;;
545;SDS011;259;53.304;9.816;2023-04-19T06:35:31;1.70;;;1.60;;
545;SDS011;259;53.304;9.816;2023-04-19T06:37:57;2.20;;;2.00;;
545;SDS011;259;53.304;9.816;2023-04-19T06:40:24;2.00;;;1.90;;
545;SDS011;259;53.304;9.816;2023-04-19T06:42:53;3.20;;;1.60;;
545;SDS011;259;53.304;9.816;2023-04-19T06:45:19;1.70;;;1.60;;
545;SDS011;259;53.304;9.816;2023-04-19T06:47:45;1.63;;;1.53;;
545;SDS011;259;53.304;9.816;2023-04-19T06:50:11;1.90;;;1.80;;
545;SDS011;259;53.304;9.816;2023-04-19T06:52:37;1.90;;;1.80;;
545;SDS011;259;53.304;9.816;2023-04-19T06:55:04;1.80;;;1.70;;
545;SDS011;259;53.304;9.816;2023-04-19T06:57:31;1.80;;;1.70;;
545;SDS011;259;53.304;9.816;2023-04-19T06:59:57;1.60;;;1.50;;
545;SDS011;259;53.304;9.816;2023-04-19T07:02:23;1.70;;;1.60;;
545;SDS011;259;53.304;9.816;2023-04-19T07:04:49;2.70;;;1.87;;
545;SDS011;259;53.304;9.816;2023-04-19T07:07:14;1.50;;;1.40;;
545;SDS011;259;53.304;9.816;2023-04-19T07:09:40;1.50;;;1.40;;
545;SDS011;259;53.304;9.816;2023-04-19T07:12:06;1.33;;;1.30;;
545;SDS011;259;53.304;9.816;2023-04-19T07:14:32;1.40;;;1.30;;
545;SDS011;259;53.304;9.816;2023-04-19T07:16:58;1.87;;;1.77;;
545;SDS011;259;53.304;9.816;2023-04-19T07:19:23;1.33;;;1.23;;
545;SDS011;259;53.304;9.816;2023-04-19T07:21:50;1.53;;;1.43;;
545;SDS011;259;53.304;9.816;2023-04-19T07:24:16;1.63;;;1.53;;
545;SDS011;259;53.304;9.816;2023-04-19T07:26:42;1.47;;;1.37;;
545;SDS011;259;53.304;9.816;2023-04-19T07:29:08;1.83;;;1.73;;
545;SDS011;259;53.304;9.816;2023-04-19T07:31:33;1.60;;;1.50;;
545;SDS011;259;53.304;9.816;2023-04-19T07:33:59;1.70;;;1.60;;
545;SDS011;259;53.304;9.816;2023-04-19T07:36:25;1.63;;;1.53;;
545;SDS011;259;53.304;9.816;2023-04-19T07:38:51;1.80;;;1.70;;
545;SDS011;259;53.304;9.816;2023-04-19T07:41:17;1.80;;;1.70;;
545;SDS011;259;53.304;9.816;2023-04-19T07:43:43;1.50;;;1.40;;
545;SDS011;259;53.304;9.816;2023-04-19T07:46:09;1.97;;;1.80;;
545;SDS011;259;53.304;9.816;2023-04-19T07:48:36;1.43;;;1.33;;
545;SDS011;259;53.304;9.816;2023-04-19T07:51:11;1.60;;;1.50;;
545;SDS011;259;53.304;9.816;2023-04-19T07:53:40;1.90;;;1.80;;
545;SDS011;259;53.304;9.816;2023-04-19T07:56:07;1.67;;;1.57;;
545;SDS011;259;53.304;9.816;2023-04-19T07:58:34;1.30;;;1.20;;
545;SDS011;259;53.304;9.816;2023-04-19T08:01:00;1.13;;;1.03;;
545;SDS011;259;53.304;9.816;2023-04-19T08:03:26;1.90;;;1.30;;
545;SDS011;259;53.304;9.816;2023-04-19T08:05:52;1.90;;;1.80;;
545;SDS011;259;53.304;9.816;2023-04-19T08:08:17;1.00;;;1.00;;
545;SDS011;259;53.304;9.816;2023-04-19T08:10:43;1.57;;;1.47;;
545;SDS011;259;53.304;9.816;2023-04-19T08:13:09;1.07;;;1.00;;
545;SDS011;259;53.304;9.816;2023-04-19T08:15:35;1.87;;;1.30;;
545;SDS011;259;53.304;9.816;2023-04-19T08:18:01;1.70;;;1.60;;
545;SDS011;259;53.304;9.816;2023-04-19T08:20:29;1.33;;;1.27;;
545;SDS011;259;53.304;9.816;2023-04-19T08:22:56;1.70;;;1.33;;
545;SDS011;259;53.304;9.816;2023-04-19T08:25:22;1.63;;;1.53;;
545;SDS011;259;53.304;9.816;2023-04-19T08:27:52;1.20;;;1.20;;
545;SDS011;259;53.304;9.816;2023-04-19T08:30:19;1.50;;;1.40;;
545;SDS011;259;53.304;9.816;2023-04-19T08:32:45;1.40;;;1.30;;
545;SDS011;259;53.304;9.816;2023-04-19T08:35:10;1.60;;;1.50;;
545;SDS011;259;53.304;9.816;2023-04-19T08:37:37;1.30;;;1.20;;
545;SDS011;259;53.304;9.816;2023-04-19T08:40:03;1.80;;;1.70;;
545;SDS011;259;53.304;9.816;2023-04-19T08:42:30;1.60;;;1.40;;
545;SDS011;259;53.304;9.816;2023-04-19T08:44:57;1.40;;;1.30;;
545;SDS011;259;53.304;9.816;2023-04-19T08:47:27;1.60;;;1.10;;
545;SDS011;259;53.304;9.816;2023-04-19T08:49:56;1.73;;;1.63;;
545;SDS011;259;53.304;9.816;2023-04-19T08:52:24;1.37;;;1.27;;
545;SDS011;259;53.304;9.816;2023-04-19T08:54:51;1.47;;;1.37;;
545;SDS011;259;53.304;9.816;2023-04-19T08:57:19;1.33;;;1.23;;
545;SDS011;259;53.304;9.816;2023-04-19T08:59:45;1.57;;;1.10;;
545;SDS011;259;53.304;9.816;2023-04-19T09:02:14;1.30;;;1.20;;
545;SDS011;259;53.304;9.816;2023-04-19T09:04:40;1.77;;;1.20;;
545;SDS011;259;53.304;9.816;2023-04-19T09:07:06;2.40;;;1.40;;
545;SDS011;259;53.304;9.816;2023-04-19T09:09:32;1.53;;;1.43;;
545;SDS011;259;53.304;9.816;2023-04-19T09:12:00;1.33;;;1.23;;
545;SDS011;259;53.304;9.816;2023-04-19T09:14:26;1.23;;;1.13;;
545;SDS011;259;53.304;9.816;2023-04-19T09:16:53;1.70;;;1.13;;
545;SDS011;259;53.304;9.816;2023-04-19T09:19:45;1.30;;;1.20;;
545;SDS011;259;53.304;9.816;2023-04-19T09:22:14;1.60;;;1.50;;
545;SDS011;259;53.304;9.816;2023-04-19T09:24:40;1.83;;;1.33;;
545;SDS011;259;53.304;9.816;2023-04-19T09:27:06;1.47;;;1.37;;
545;SDS011;259;53.304;9.816;2023-04-19T09:29:34;1.20;;;1.10;;
545;SDS011;259;53.304;9.816;2023-04-19T09:32:00;1.50;;;1.27;;
545;SDS011;259;53.304;9.816;2023-04-19T09:34:25;1.60;;;1.50;;
545;SDS011;259;53.304;9.816;2023-04-19T09:36:53;1.40;;;1.20;;
545;SDS011;259;53.304;9.816;2023-04-19T09:39:29;1.83;;;1.20;;
545;SDS011;259;53.304;9.816;2023-04-19T09:41:56;1.47;;;1.37;;
545;SDS011;259;53.304;9.816;2023-04-19T09:44:22;1.37;;;1.27;;
545;SDS011;259;53.304;9.816;2023-04-19T09:46:48;1.47;;;1.37;;
545;SDS011;259;53.304;9.816;2023-04-19T09:49:17;1.03;;;1.03;;
545;SDS011;259;53.304;9.816;2023-04-19T09:51:50;1.60;;;1.50;;
545;SDS011;259;53.304;9.816;2023-04-19T09:54:19;1.40;;;1.30;;
545;SDS011;259;53.304;9.816;2023-04-19T09:56:47;2.40;;;1.50;;
545;SDS011;259;53.304;9.816;2023-04-19T09:59:13;1.30;;;1.20;;
545;SDS011;259;53.304;9.816;2023-04-19T10:01:43;1.47;;;1.33;;
545;SDS011;259;53.304;9.816;2023-04-19T10:04:12;1.53;;;1.30;;
545;SDS011;259;53.304;9.816;2023-04-19T10:06:52;1.23;;;1.13;;
545;SDS011;259;53.304;9.816;2023-04-19T10:09:19;1.60;;;1.37;;
545;SDS011;259;53.304;9.816;2023-04-19T10:11:47;1.40;;;1.33;;
545;SDS011;259;53.304;9.816;2023-04-19T10:14:23;1.67;;;1.50;;
545;SDS011;259;53.304;9.816;2023-04-19T10:16:50;2.90;;;1.33;;
545;SDS011;259;53.304;9.816;2023-04-19T10:19:19;1.70;;;1.60;;
545;SDS011;259;53.304;9.816;2023-04-19T10:21:47;1.50;;;1.40;;
545;SDS011;259;53.304;9.816;2023-04-19T10:24:13;1.57;;;1.47;;
545;SDS011;259;53.304;9.816;2023-04-19T10:29:53;2.70;;;1.70;;
545;SDS011;259;53.304;9.816;2023-04-19T10:32:20;1.53;;;1.43;;
545;SDS011;259;53.304;9.816;2023-04-19T10:34:46;1.57;;;1.47;;
545;SDS011;259;53.304;9.816;2023-04-19T10:37:15;1.40;;;1.30;;
545;SDS011;259;53.304;9.816;2023-04-19T10:39:42;2.90;;;1.63;;
545;SDS011;259;53.304;9.816;2023-04-19T10:42:09;1.70;;;1.60;;
545;SDS011;259;53.304;9.816;2023-04-19T10:44:34;1.70;;;1.60;;
545;SDS011;259;53.304;9.816;2023-04-19T10:47:01;1.10;;;1.10;;
545;SDS011;259;53.304;9.816;2023-04-19T10:49:29;1.80;;;1.70;;
545;SDS011;259;53.304;9.816;2023-04-19T10:51:56;1.57;;;1.47;;
545;SDS011;259;53.304;9.816;2023-04-19T10:54:34;1.60;;;1.50;;
545;SDS011;259;53.304;9.816;2023-04-19T10:57:03;1.97;;;1.87;;
545;SDS011;259;53.304;9.816;2023-04-19T10:59:34;1.77;;;1.63;;
545;SDS011;259;53.304;9.816;2023-04-19T11:07:15;1.60;;;1.50;;
545;SDS011;259;53.304;9.816;2023-04-19T11:09:45;1.93;;;1.83;;
545;SDS011;259;53.304;9.816;2023-04-19T11:12:16;2.03;;;1.60;;
545;SDS011;259;53.304;9.816;2023-04-19T11:17:13;1.47;;;1.37;;
545;SDS011;259;53.304;9.816;2023-04-19T11:20:07;2.10;;;1.90;;
545;SDS011;259;53.304;9.816;2023-04-19T11:27:32;1.63;;;1.47;;
545;SDS011;259;53.304;9.816;2023-04-19T11:30:05;1.73;;;1.63;;
545;SDS011;259;53.304;9.816;2023-04-19T11:32:34;2.30;;;1.70;;
545;SDS011;259;53.304;9.816;2023-04-19T11:35:04;1.63;;;1.53;;
545;SDS011;259;53.304;9.816;2023-04-19T11:37:34;2.03;;;1.90;;
545;SDS011;259;53.304;9.816;2023-04-19T11:40:01;2.17;;;2.07;;
545;SDS011;259;53.304;9.816;2023-04-19T11:42:28;1.90;;;1.80;;
545;SDS011;259;53.304;9.816;2023-04-19T11:44:54;1.90;;;1.80;;
545;SDS011;259;53.304;9.816;2023-04-19T11:47:22;2.00;;;1.90;;
545;SDS011;259;53.304;9.816;2023-04-19T11:49:48;2.20;;;2.00;;
545;SDS011;259;53.304;9.816;2023-04-19T11:52:19;2.07;;;1.87;;
545;SDS011;259;53.304;9.816;2023-04-19T11:54:50;1.80;;;1.70;;
545;SDS011;259;53.304;9.816;2023-04-19T11:57:28;2.57;;;1.90;;
545;SDS011;259;53.304;9.816;2023-04-19T12:00:04;2.27;;;2.07;;
545;SDS011;259;53.304;9.816;2023-04-19T12:02:36;2.50;;;1.80;;
545;SDS011;259;53.304;9.816;2023-04-19T12:05:13;2.40;;;2.10;;
545;SDS011;259;53.304;9.816;2023-04-19T12:10:29;1.40;;;1.30;;
545;SDS011;259;53.304;9.816;2023-04-19T12:12:56;2.20;;;2.00;;
545;SDS011;259;53.304;9.816;2023-04-19T12:15:22;2.43;;;2.23;;
545;SDS011;259;53.304;9.816;2023-04-19T12:17:55;2.50;;;2.30;;
545;SDS011;259;53.304;9.816;2023-04-19T12:20:32;2.63;;;2.30;;
545;SDS011;259;53.304;9.816;2023-04-19T12:23:00;2.67;;;2.20;;
545;SDS011;259;53.304;9.816;2023-04-19T12:25:30;2.30;;;2.20;;
545;SDS011;259;53.304;9.816;2023-04-19T12:28:02;2.47;;;2.27;;
545;SDS011;259;53.304;9.816;2023-04-19T12:30:28;2.30;;;2.10;;
545;SDS011;259;53.304;9.816;2023-04-19T12:32:54;1.87;;;1.77;;
545;SDS011;259;53.304;9.816;2023-04-19T12:35:20;2.13;;;1.93;;
545;SDS011;259;53.304;9.816;2023-04-19T12:37:48;2.00;;;1.80;;
545;SDS011;259;53.304;9.816;2023-04-19T12:40:13;2.57;;;2.37;;
545;SDS011;259;53.304;9.816;2023-04-19T12:42:39;1.80;;;1.70;;
545;SDS011;259;53.304;9.816;2023-04-19T12:45:05;1.97;;;1.87;;
545;SDS011;259;53.304;9.816;2023-04-19T12:47:31;1.80;;;1.70;;
545;SDS011;259;53.304;9.816;2023-04-19T12:49:57;2.23;;;2.03;;
545;SDS011;259;53.304;9.816;2023-04-19T12:52:23;3.63;;;1.77;;
545;SDS011;259;53.304;9.816;2023-04-19T12:54:49;2.80;;;2.37;;
545;SDS011;259;53.304;9.816;2023-04-19T12:57:14;2.33;;;2.13;;
545;SDS011;259;53.304;9.816;2023-04-19T12:59:40;2.10;;;1.90;;
545;SDS011;259;53.304;9.816;2023-04-19T13:02:06;1.87;;;1.77;;
545;SDS011;259;53.304;9.816;2023-04-19T13:04:32;2.30;;;2.10;;
545;SDS011;259;53.304;9.816;2023-04-19T13:06:58;2.50;;;2.30;;
545;SDS011;259;53.304;9.816;2023-04-19T13:09:25;1.97;;;1.87;;
545;SDS011;259;53.304;9.816;2023-04-19T13:11:54;2.40;;;2.13;;
545;SDS011;259;53.304;9.816;2023-04-19T13:14:20;3.00;;;2.20;;
545;SDS011;259;53.304;9.816;2023-04-19T13:16:46;2.20;;;2.10;;
545;SDS011;259;53.304;9.816;2023-04-19T13:19:11;2.20;;;2.10;;
545;SDS011;259;53.304;9.816;2023-04-19T13:21:37;1.90;;;1.80;;
545;SDS011;259;53.304;9.816;2023-04-19T13:24:03;2.20;;;2.00;;
545;SDS011;259;53.304;9.816;2023-04-19T13:26:29;2.77;;;2.03;;
545;SDS011;259;53.304;9.816;2023-04-19T13:28:54;3.03;;;2.13;;
545;SDS011;259;53.304;9.816;2023-04-19T13:31:20;2.13;;;2.03;;
545;SDS011;259;53.304;9.816;2023-04-19T13:33:46;2.03;;;1.93;;
545;SDS011;259;53.304;9.816;2023-04-19T13:36:12;2.67;;;2.40;;
545;SDS011;259;53.304;9.816;2023-04-19T13:38:37;2.07;;;1.97;;
545;SDS011;259;53.304;9.816;2023-04-19T13:41:03;1.90;;;1.80;;
545;SDS011;259;53.304;9.816;2023-04-19T13:43:29;2.73;;;2.53;;
545;SDS011;259;53.304;9.816;2023-04-19T13:45:54;2.13;;;2.03;;
545;SDS011;259;53.304;9.816;2023-04-19T13:48:20;2.20;;;1.93;;
545;SDS011;259;53.304;9.816;2023-04-19T13:50:46;2.50;;;2.30;;
545;SDS011;259;53.304;9.816;2023-04-19T13:53:12;2.80;;;2.10;;
545;SDS011;259;53.304;9.816;2023-04-19T13:55:37;6.77;;;2.57;;
545;SDS011;259;53.304;9.816;2023-04-19T13:58:03;7.20;;;2.40;;
545;SDS011;259;53.304;9.816;2023-04-19T14:00:29;5.63;;;2.17;;
545;SDS011;259;53.304;9.816;2023-04-19T14:02:55;3.23;;;2.00;;
545;SDS011;259;53.304;9.816;2023-04-19T14:05:20;2.40;;;2.07;;
545;SDS011;259;53.304;9.816;2023-04-19T14:07:46;3.17;;;2.40;;
545;SDS011;259;53.304;9.816;2023-04-19T14:10:12;2.20;;;1.90;;
545;SDS011;259;53.304;9.816;2023-04-19T14:12:37;2.13;;;1.93;;
545;SDS011;259;53.304;9.816;2023-04-19T14:15:03;2.53;;;2.33;;
545;SDS011;259;53.304;9.816;2023-04-19T14:17:29;3.90;;;2.33;;
545;SDS011;259;53.304;9.816;2023-04-19T14:19:55;2.57;;;2.07;;
545;SDS011;259;53.304;9.816;2023-04-19T14:22:21;2.27;;;2.17;;
545;SDS011;259;53.304;9.816;2023-04-19T14:24:46;2.80;;;2.07;;
545;SDS011;259;53.304;9.816;2023-04-19T14:27:12;2.10;;;1.90;;
545;SDS011;259;53.304;9.816;2023-04-19T14:29:38;2.33;;;2.23;;
545;SDS011;259;53.304;9.816;2023-04-19T14:32:03;4.53;;;2.47;;
545;SDS011;259;53.304;9.816;2023-04-19T14:34:29;2.13;;;2.00;;
545;SDS011;259;53.304;9.816;2023-04-19T14:36:56;2.00;;;1.90;;
545;SDS011;259;53.304;9.816;2023-04-19T14:39:22;2.00;;;1.90;;
545;SDS011;259;53.304;9.816;2023-04-19T14:41:48;2.13;;;1.80;;
545;SDS011;259;53.304;9.816;2023-04-19T14:44:13;1.70;;;1.60;;
545;SDS011;259;53.304;9.816;2023-04-19T14:46:39;2.03;;;1.93;;
545;SDS011;259;53.304;9.816;2023-04-19T14:49:05;1.73;;;1.63;;
545;SDS011;259;53.304;9.816;2023-04-19T14:51:31;2.00;;;1.70;;
545;SDS011;259;53.304;9.816;2023-04-19T14:53:57;1.70;;;1.60;;
545;SDS011;259;53.304;9.816;2023-04-19T14:56:23;2.37;;;2.17;;
545;SDS011;259;53.304;9.816;2023-04-19T14:58:50;2.33;;;2.13;;
545;SDS011;259;53.304;9.816;2023-04-19T15:01:17;1.80;;;1.57;;
545;SDS011;259;53.304;9.816;2023-04-19T15:03:42;2.33;;;2.13;;
545;SDS011;259;53.304;9.816;2023-04-19T15:06:08;1.77;;;1.67;;
545;SDS011;259;53.304;9.816;2023-04-19T15:08:34;2.00;;;1.90;;
545;SDS011;259;53.304;9.816;2023-04-19T15:11:00;2.47;;;1.57;;
545;SDS011;259;53.304;9.816;2023-04-19T15:13:25;1.60;;;1.50;;
545;SDS011;259;53.304;9.816;2023-04-19T15:15:51;1.90;;;1.80;;
545;SDS011;259;53.304;9.816;2023-04-19T15:18:17;1.57;;;1.47;;
545;SDS011;259;53.304;9.816;2023-04-19T15:20:42;1.70;;;1.60;;
545;SDS011;259;53.304;9.816;2023-04-19T15:23:08;1.80;;;1.70;;
545;SDS011;259;53.304;9.816;2023-04-19T15:25:35;2.30;;;1.73;;
545;SDS011;259;53.304;9.816;2023-04-19T15:28:01;3.87;;;2.40;;
545;SDS011;259;53.304;9.816;2023-04-19T15:30:26;2.67;;;2.10;;
545;SDS011;259;53.304;9.816;2023-04-19T15:32:52;2.33;;;2.20;;
545;SDS011;259;53.304;9.816;2023-04-19T15:35:18;1.80;;;1.70;;
545;SDS011;259;53.304;9.816;2023-04-19T15:37:45;1.90;;;1.73;;
545;SDS011;259;53.304;9.816;2023-04-19T15:40:11;1.90;;;1.80;;
545;SDS011;259;53.304;9.816;2023-04-19T15:42:38;2.07;;;1.90;;
545;SDS011;259;53.304;9.816;2023-04-19T15:45:04;1.93;;;1.83;;
545;SDS011;259;53.304;9.816;2023-04-19T15:47:32;1.60;;;1.50;;
545;SDS011;259;53.304;9.816;2023-04-19T15:49:58;2.03;;;1.93;;
545;SDS011;259;53.304;9.816;2023-04-19T15:52:25;2.00;;;1.80;;
545;SDS011;259;53.304;9.816;2023-04-19T15:54:51;1.73;;;1.63;;
545;SDS011;259;53.304;9.816;2023-04-19T15:57:16;1.90;;;1.80;;
545;SDS011;259;53.304;9.816;2023-04-19T15:59:42;2.93;;;1.73;;